createdAt,value
2022-12-11T00:01:23.695Z,-1.64
2022-12-11T00:03:52.845Z,-1.61
2022-12-11T00:06:24.843Z,-1.59
2022-12-11T00:08:56.002Z,-1.56
2022-12-11T00:11:26.156Z,-1.55
2022-12-11T00:13:57.033Z,-1.55
2022-12-11T00:16:27.411Z,-1.61
2022-12-11T00:18:56.913Z,-1.57
2022-12-11T00:21:27.086Z,-1.53
2022-12-11T00:23:56.048Z,-1.50
2022-12-11T00:26:25.535Z,-1.50
2022-12-11T00:28:57.789Z,-1.49
2022-12-11T00:31:27.110Z,-1.48
2022-12-11T00:33:56.999Z,-1.48
2022-12-11T00:36:28.367Z,-1.48
2022-12-11T00:38:56.880Z,-1.46
2022-12-11T00:41:26.846Z,-1.45
2022-12-11T00:43:57.689Z,-1.42
2022-12-11T00:46:27.173Z,-1.44
2022-12-11T00:48:55.570Z,-1.43
2022-12-11T00:51:24.403Z,-1.42
2022-12-11T00:53:53.358Z,-1.40
2022-12-11T00:56:25.293Z,-1.38
2022-12-11T00:58:55.815Z,-1.38
2022-12-11T01:01:26.352Z,-1.39
2022-12-11T01:03:55.424Z,-1.37
2022-12-11T01:06:26.702Z,-1.33
2022-12-11T01:09:10.151Z,-1.31
2022-12-11T01:11:39.645Z,-1.30
2022-12-11T01:14:11.701Z,-1.27
2022-12-11T01:16:40.363Z,-1.26
2022-12-11T01:19:09.294Z,-1.26
2022-12-11T01:21:37.774Z,-1.24
2022-12-11T01:24:08.714Z,-1.20
2022-12-11T01:26:38.681Z,-1.19
2022-12-11T01:29:10.412Z,-1.22
2022-12-11T01:31:40.727Z,-1.22
2022-12-11T01:34:09.546Z,-1.22
2022-12-11T01:36:39.683Z,-1.19
2022-12-11T01:39:10.172Z,-1.20
2022-12-11T01:41:39.803Z,-1.21
2022-12-11T01:45:09.780Z,-1.20
2022-12-11T01:47:39.997Z,-1.20
2022-12-11T01:50:10.889Z,-1.16
2022-12-11T01:52:40.992Z,-1.14
2022-12-11T01:55:12.105Z,-1.11
2022-12-11T01:57:45.382Z,-1.09
2022-12-11T02:00:18.591Z,-1.09
2022-12-11T02:02:48.338Z,-1.08
2022-12-11T02:05:17.372Z,-1.05
2022-12-11T02:07:51.743Z,-1.06
2022-12-11T02:10:21.164Z,-1.08
2022-12-11T02:13:00.115Z,-1.06
2022-12-11T02:15:40.270Z,-1.03
2022-12-11T02:18:21.389Z,-1.04
2022-12-11T02:20:58.567Z,-1.03
2022-12-11T02:24:09.272Z,-0.99
2022-12-11T02:27:20.921Z,-0.99
2022-12-11T02:30:00.236Z,-1.01
2022-12-11T02:32:38.182Z,-1.03
2022-12-11T02:35:15.469Z,-0.98
2022-12-11T02:37:50.398Z,-0.96
2022-12-11T02:40:26.091Z,-0.93
2022-12-11T02:42:58.939Z,-0.92
2022-12-11T02:45:32.700Z,-0.91
2022-12-11T02:48:06.839Z,-0.89
2022-12-11T02:50:44.150Z,-0.91
2022-12-11T02:53:17.854Z,-0.96
2022-12-11T02:55:53.464Z,-0.95
2022-12-11T02:58:28.229Z,-0.93
2022-12-11T03:00:59.340Z,-0.94
2022-12-11T03:03:31.108Z,-0.95
2022-12-11T03:06:00.503Z,-0.95
2022-12-11T03:08:30.148Z,-0.97
2022-12-11T03:11:00.408Z,-0.93
2022-12-11T03:13:29.963Z,-0.91
2022-12-11T03:16:15.347Z,-0.90
2022-12-11T03:18:56.729Z,-0.88
2022-12-11T03:21:38.038Z,-0.86
2022-12-11T03:24:15.916Z,-0.85
2022-12-11T03:26:56.660Z,-0.82
2022-12-11T03:29:33.680Z,-0.83
2022-12-11T03:32:11.621Z,-0.80
2022-12-11T03:34:47.050Z,-0.79
2022-12-11T03:37:18.249Z,-0.84
2022-12-11T03:39:55.054Z,-0.83
2022-12-11T03:42:28.484Z,-0.82
2022-12-11T03:45:00.545Z,-0.83
2022-12-11T03:47:34.107Z,-0.80
2022-12-11T03:50:07.240Z,-0.78
2022-12-11T03:52:44.080Z,-0.77
2022-12-11T03:55:18.742Z,-0.75
2022-12-11T03:57:48.619Z,-0.72
2022-12-11T04:00:20.724Z,-0.70
2022-12-11T04:03:11.172Z,-0.75
2022-12-11T04:05:43.768Z,-0.77
2022-12-11T04:08:12.716Z,-0.72
2022-12-11T04:10:42.722Z,-0.70
2022-12-11T04:13:12.546Z,-0.71
2022-12-11T04:15:41.706Z,-0.67
2022-12-11T04:18:30.134Z,-0.66
2022-12-11T04:21:16.823Z,-0.67
2022-12-11T04:24:04.597Z,-0.65
2022-12-11T04:26:34.019Z,-0.64
2022-12-11T04:29:03.408Z,-0.64
2022-12-11T04:31:33.042Z,-0.62
2022-12-11T04:34:04.485Z,-0.61
2022-12-11T04:36:34.578Z,-0.59
2022-12-11T04:39:03.400Z,-0.59
2022-12-11T04:41:33.189Z,-0.60
2022-12-11T04:44:03.500Z,-0.60
2022-12-11T04:46:33.369Z,-0.60
2022-12-11T04:49:04.319Z,-0.58
2022-12-11T04:51:34.403Z,-0.56
2022-12-11T04:54:03.733Z,-0.52
2022-12-11T04:56:33.180Z,-0.52
2022-12-11T04:59:02.776Z,-0.48
2022-12-11T05:01:32.999Z,-0.53
2022-12-11T05:04:03.154Z,-0.52
2022-12-11T05:06:33.716Z,-0.48
2022-12-11T05:09:03.708Z,-0.45
2022-12-11T05:11:34.115Z,-0.43
2022-12-11T05:14:04.565Z,-0.42
2022-12-11T05:16:33.659Z,-0.41
2022-12-11T05:19:04.912Z,-0.40
2022-12-11T05:21:35.506Z,-0.36
2022-12-11T05:24:08.182Z,-0.36
2022-12-11T05:26:38.090Z,-0.36
2022-12-11T05:29:10.633Z,-0.34
2022-12-11T05:31:40.345Z,-0.34
2022-12-11T05:34:11.970Z,-0.38
2022-12-11T05:36:42.401Z,-0.37
2022-12-11T05:39:14.134Z,-0.35
2022-12-11T05:41:44.846Z,-0.35
2022-12-11T05:44:14.789Z,-0.32
2022-12-11T05:46:44.402Z,-0.34
2022-12-11T05:49:17.520Z,-0.32
2022-12-11T05:51:50.594Z,-0.32
2022-12-11T05:54:20.224Z,-0.33
2022-12-11T05:56:53.293Z,-0.33
2022-12-11T05:59:24.371Z,-0.32
2022-12-11T06:01:54.970Z,-0.30
2022-12-11T06:04:26.926Z,-0.29
2022-12-11T06:06:57.391Z,-0.30
2022-12-11T06:09:27.767Z,-0.31
2022-12-11T06:12:04.000Z,-0.30
2022-12-11T06:14:33.562Z,-0.28
2022-12-11T06:17:03.285Z,-0.29
2022-12-11T06:19:36.911Z,-0.26
2022-12-11T06:22:06.711Z,-0.26
2022-12-11T06:24:37.411Z,-0.25
2022-12-11T06:27:10.275Z,-0.25
2022-12-11T06:29:40.768Z,-0.25
2022-12-11T06:32:10.469Z,-0.24
2022-12-11T06:34:42.759Z,-0.24
2022-12-11T06:37:11.981Z,-0.23
2022-12-11T06:39:41.980Z,-0.21
2022-12-11T06:42:13.541Z,-0.19
2022-12-11T06:44:43.090Z,-0.21
2022-12-11T06:47:12.590Z,-0.20
2022-12-11T06:49:43.160Z,-0.22
2022-12-11T06:52:18.203Z,-0.21
2022-12-11T06:54:48.957Z,-0.18
2022-12-11T06:57:19.385Z,-0.19
2022-12-11T06:59:49.088Z,-0.16
2022-12-11T07:02:22.078Z,-0.17
2022-12-11T07:04:55.339Z,-0.17
2022-12-11T07:07:25.141Z,-0.17
2022-12-11T07:09:54.351Z,-0.16
2022-12-11T07:12:23.543Z,-0.15
2022-12-11T07:14:53.648Z,-0.15
2022-12-11T07:17:23.576Z,-0.17
2022-12-11T07:19:55.128Z,-0.15
2022-12-11T07:22:24.034Z,-0.17
2022-12-11T07:24:53.142Z,-0.15
2022-12-11T07:27:23.226Z,-0.13
2022-12-11T07:29:52.700Z,-0.15
2022-12-11T07:32:21.959Z,-0.19
2022-12-11T07:34:52.133Z,-0.19
2022-12-11T07:37:23.625Z,-0.18
2022-12-11T07:39:52.502Z,-0.15
2022-12-11T07:42:22.500Z,-0.14
2022-12-11T07:44:52.097Z,-0.13
2022-12-11T07:47:22.198Z,-0.09
2022-12-11T07:49:51.615Z,-0.07
2022-12-11T07:52:21.416Z,-0.07
2022-12-11T07:54:51.029Z,-0.07
2022-12-11T07:57:21.303Z,-0.05
2022-12-11T07:59:51.572Z,-0.06
2022-12-11T08:02:20.739Z,-0.05
2022-12-11T08:04:50.694Z,-0.06
2022-12-11T08:07:21.100Z,-0.05
2022-12-11T08:09:50.695Z,-0.01
2022-12-11T08:12:19.446Z,-0.02
2022-12-11T08:14:47.942Z,0.00
2022-12-11T08:17:17.785Z,0.02
2022-12-11T08:19:47.295Z,0.01
2022-12-11T08:22:17.267Z,0.03
2022-12-11T08:24:49.653Z,0.06
2022-12-11T08:27:18.655Z,0.05
2022-12-11T08:29:48.756Z,0.06
2022-12-11T08:32:19.313Z,0.05
2022-12-11T08:34:48.768Z,0.08
2022-12-11T08:37:18.227Z,0.09
2022-12-11T08:39:48.658Z,0.11
2022-12-11T08:42:17.055Z,0.11
2022-12-11T08:44:47.102Z,0.13
2022-12-11T08:47:16.545Z,0.14
2022-12-11T08:49:46.576Z,0.14
2022-12-11T08:52:19.810Z,0.15
2022-12-11T08:54:50.716Z,0.15
2022-12-11T08:57:22.454Z,0.20
2022-12-11T08:59:51.618Z,0.18
2022-12-11T09:02:22.226Z,0.16
2022-12-11T09:04:51.930Z,0.17
2022-12-11T09:07:20.985Z,0.18
2022-12-11T09:09:51.647Z,0.16
2022-12-11T09:12:21.621Z,0.18
2022-12-11T09:14:51.290Z,0.19
2022-12-11T09:17:20.228Z,0.20
2022-12-11T09:19:49.703Z,0.17
2022-12-11T09:22:19.263Z,0.21
2022-12-11T09:24:50.646Z,0.24
2022-12-11T09:27:21.396Z,0.29
2022-12-11T09:29:50.416Z,0.27
2022-12-11T09:32:19.278Z,0.28
2022-12-11T09:34:51.913Z,0.30
2022-12-11T09:37:20.642Z,0.34
2022-12-11T09:39:52.260Z,0.34
2022-12-11T09:42:34.469Z,0.34
2022-12-11T09:45:07.180Z,0.37
2022-12-11T09:47:41.195Z,0.39
2022-12-11T09:50:19.176Z,0.39
2022-12-11T09:53:05.859Z,0.40
2022-12-11T09:55:50.033Z,0.43
2022-12-11T09:58:29.292Z,0.44
2022-12-11T10:01:07.674Z,0.47
2022-12-11T10:04:22.141Z,0.52
2022-12-11T10:07:02.962Z,0.52
2022-12-11T10:09:44.619Z,0.52
2022-12-11T10:12:40.096Z,0.54
2022-12-11T10:15:27.308Z,0.58
2022-12-11T10:18:04.635Z,0.58
2022-12-11T10:20:39.485Z,0.61
2022-12-11T10:23:10.699Z,0.64
2022-12-11T10:25:46.440Z,0.66
2022-12-11T10:28:19.068Z,0.67
2022-12-11T10:31:02.724Z,0.69
2022-12-11T10:33:46.756Z,0.72
2022-12-11T10:36:22.501Z,0.74
2022-12-11T10:38:51.792Z,0.76
2022-12-11T10:41:25.422Z,0.81
2022-12-11T10:43:56.449Z,0.82
2022-12-11T10:46:28.258Z,0.85
2022-12-11T10:49:00.528Z,0.89
2022-12-11T10:51:38.791Z,0.90
2022-12-11T10:54:19.025Z,0.91
2022-12-11T10:56:51.641Z,0.95
2022-12-11T10:59:30.131Z,0.99
2022-12-11T11:02:00.567Z,1.00
2022-12-11T11:04:33.811Z,1.04
2022-12-11T11:07:15.572Z,1.07
2022-12-11T11:09:45.702Z,1.06
2022-12-11T11:12:26.319Z,1.10
2022-12-11T11:15:04.650Z,1.10
2022-12-11T11:17:52.739Z,1.10
2022-12-11T11:20:29.622Z,1.12
2022-12-11T11:23:01.940Z,1.12
2022-12-11T11:25:34.122Z,1.15
2022-12-11T11:28:07.827Z,1.18
2022-12-11T11:30:41.886Z,1.18
2022-12-11T11:33:19.407Z,1.20
2022-12-11T11:35:55.927Z,1.25
2022-12-11T11:38:30.612Z,1.31
2022-12-11T11:41:15.103Z,1.31
2022-12-11T11:43:50.092Z,1.34
2022-12-11T11:46:27.502Z,1.38
2022-12-11T11:49:15.406Z,1.42
2022-12-11T11:51:53.588Z,1.46
2022-12-11T11:54:35.143Z,1.52
2022-12-11T11:57:17.293Z,1.55
2022-12-11T11:59:52.197Z,1.56
2022-12-11T12:02:23.270Z,1.58
2022-12-11T12:04:53.329Z,1.60
2022-12-11T12:07:42.259Z,1.59
2022-12-11T12:10:22.835Z,1.57
2022-12-11T12:13:03.167Z,1.55
2022-12-11T12:15:43.215Z,1.56
2022-12-11T12:18:35.954Z,1.55
2022-12-11T12:21:21.827Z,1.60
2022-12-11T12:24:11.657Z,1.62
2022-12-11T12:26:49.116Z,1.61
2022-12-11T12:29:40.830Z,1.62
2022-12-11T12:32:22.477Z,1.65
2022-12-11T12:35:11.452Z,1.67
2022-12-11T12:37:57.396Z,1.70
2022-12-11T12:40:50.187Z,1.72
2022-12-11T12:43:39.526Z,1.69
2022-12-11T12:46:23.352Z,1.69
2022-12-11T12:48:58.164Z,1.66
2022-12-11T12:51:30.213Z,1.67
2022-12-11T12:54:06.684Z,1.69
2022-12-11T12:56:43.695Z,1.69
2022-12-11T12:59:23.688Z,1.69
2022-12-11T13:01:57.353Z,1.74
2022-12-11T13:04:59.443Z,1.77
2022-12-11T13:07:32.915Z,1.77
2022-12-11T13:10:09.195Z,1.79
2022-12-11T13:12:46.781Z,1.79
2022-12-11T13:15:39.101Z,1.75
2022-12-11T13:18:36.125Z,1.74
2022-12-11T13:21:32.427Z,1.77
2022-12-11T13:24:29.738Z,1.81
2022-12-11T13:27:11.137Z,1.82
2022-12-11T13:29:43.490Z,1.84
2022-12-11T13:32:25.872Z,1.87
2022-12-11T13:34:59.339Z,1.89
2022-12-11T13:37:34.870Z,1.86
2022-12-11T13:40:12.952Z,1.88
2022-12-11T13:42:51.728Z,1.86
2022-12-11T13:45:30.043Z,1.88
2022-12-11T13:48:01.185Z,1.88
2022-12-11T13:50:36.063Z,1.88
2022-12-11T13:53:06.181Z,1.87
2022-12-11T13:55:37.507Z,1.89
2022-12-11T13:58:18.403Z,1.89
2022-12-11T14:01:08.811Z,1.91
2022-12-11T14:03:41.013Z,1.89
2022-12-11T14:06:18.273Z,1.90
2022-12-11T14:08:54.697Z,1.91
2022-12-11T14:11:29.481Z,1.91
2022-12-11T14:14:02.312Z,1.90
2022-12-11T14:16:33.210Z,1.87
2022-12-11T14:19:08.575Z,1.87
2022-12-11T14:21:38.132Z,1.86
2022-12-11T14:24:13.707Z,1.83
2022-12-11T14:26:53.064Z,1.82
2022-12-11T14:29:31.424Z,1.79
2022-12-11T14:32:07.483Z,1.81
2022-12-11T14:34:44.423Z,1.79
2022-12-11T14:37:17.858Z,1.82
2022-12-11T14:39:51.850Z,1.84
2022-12-11T14:42:26.073Z,1.82
2022-12-11T14:45:01.899Z,1.84
2022-12-11T14:47:40.158Z,1.86
2022-12-11T14:50:19.152Z,1.85
2022-12-11T14:52:54.431Z,1.86
2022-12-11T14:55:28.017Z,1.85
2022-12-11T14:58:02.879Z,1.83
2022-12-11T15:00:36.325Z,1.81
2022-12-11T15:03:09.108Z,1.82
2022-12-11T15:05:51.751Z,1.77
2022-12-11T15:08:27.123Z,1.74
2022-12-11T15:11:09.869Z,1.72
2022-12-11T15:13:54.095Z,1.73
2022-12-11T15:16:26.523Z,1.74
2022-12-11T15:18:58.900Z,1.73
2022-12-11T15:21:32.730Z,1.73
2022-12-11T15:24:07.133Z,1.74
2022-12-11T15:26:40.092Z,1.73
2022-12-11T15:29:35.012Z,1.72
2022-12-11T15:32:19.838Z,1.72
2022-12-11T15:34:52.587Z,1.73
2022-12-11T15:37:25.750Z,1.74
2022-12-11T15:39:57.649Z,1.73
2022-12-11T15:42:31.448Z,1.73
2022-12-11T15:45:03.354Z,1.71
2022-12-11T15:47:34.409Z,1.71
2022-12-11T15:50:18.380Z,1.70
2022-12-11T15:52:47.953Z,1.70
2022-12-11T15:55:18.335Z,1.70
2022-12-11T15:57:52.272Z,1.69
2022-12-11T16:00:26.366Z,1.70
2022-12-11T16:02:55.865Z,1.70
2022-12-11T16:05:25.989Z,1.66
2022-12-11T16:07:59.656Z,1.66
2022-12-11T16:10:29.663Z,1.63
2022-12-11T16:12:59.819Z,1.61
2022-12-11T16:15:31.058Z,1.60
2022-12-11T16:18:05.765Z,1.60
2022-12-11T16:20:36.230Z,1.61
2022-12-11T16:23:06.691Z,1.61
2022-12-11T16:25:38.116Z,1.61
2022-12-11T16:28:07.914Z,1.61
2022-12-11T16:30:40.823Z,1.61
2022-12-11T16:33:12.845Z,1.62
2022-12-11T16:35:43.314Z,1.61
2022-12-11T16:38:13.611Z,1.57
2022-12-11T16:40:43.710Z,1.55
2022-12-11T16:43:13.845Z,1.55
2022-12-11T16:45:45.609Z,1.49
2022-12-11T16:48:15.654Z,1.46
2022-12-11T16:50:53.469Z,1.42
2022-12-11T16:53:22.792Z,1.39
2022-12-11T16:55:52.128Z,1.37
2022-12-11T16:58:21.488Z,1.39
2022-12-11T17:00:52.893Z,1.38
2022-12-11T17:03:22.930Z,1.31
2022-12-11T17:05:51.373Z,1.31
2022-12-11T17:08:21.094Z,1.31
2022-12-11T17:10:49.643Z,1.33
2022-12-11T17:13:19.386Z,1.32
2022-12-11T17:15:48.502Z,1.29
2022-12-11T17:18:19.324Z,1.29
2022-12-11T17:20:49.659Z,1.27
2022-12-11T17:23:19.135Z,1.27
2022-12-11T17:25:49.606Z,1.22
2022-12-11T17:28:18.244Z,1.21
2022-12-11T17:30:49.357Z,1.22
2022-12-11T17:33:19.549Z,1.23
2022-12-11T17:35:49.888Z,1.24
2022-12-11T17:38:19.363Z,1.22
2022-12-11T17:40:48.927Z,1.21
2022-12-11T17:43:18.090Z,1.26
2022-12-11T17:45:52.247Z,1.26
2022-12-11T17:48:23.697Z,1.22
2022-12-11T17:50:54.497Z,1.25
2022-12-11T17:53:24.928Z,1.23
2022-12-11T17:55:54.613Z,1.25
2022-12-11T17:58:24.718Z,1.24
2022-12-11T18:00:57.626Z,1.22
2022-12-11T18:03:29.868Z,1.24
2022-12-11T18:06:05.851Z,1.26
2022-12-11T18:08:35.565Z,1.25
2022-12-11T18:11:08.677Z,1.23
2022-12-11T18:13:38.241Z,1.25
2022-12-11T18:16:12.845Z,1.28
2022-12-11T18:18:43.399Z,1.25
2022-12-11T18:21:15.191Z,1.27
2022-12-11T18:23:44.619Z,1.28
2022-12-11T18:26:14.595Z,1.28
2022-12-11T18:28:43.723Z,1.29
2022-12-11T18:31:13.631Z,1.29
2022-12-11T18:33:45.370Z,1.26
2022-12-11T18:36:16.796Z,1.26
2022-12-11T18:38:47.127Z,1.26
2022-12-11T18:41:18.509Z,1.24
2022-12-11T18:43:47.810Z,1.23
2022-12-11T18:46:19.241Z,1.24
2022-12-11T18:48:50.812Z,1.21
2022-12-11T18:51:24.074Z,1.18
2022-12-11T18:53:53.844Z,1.18
2022-12-11T18:56:23.768Z,1.20
2022-12-11T18:58:53.358Z,1.19
2022-12-11T19:01:25.781Z,1.20
2022-12-11T19:04:04.188Z,1.18
2022-12-11T19:06:36.546Z,1.18
2022-12-11T19:09:09.002Z,1.17
2022-12-11T19:11:41.679Z,1.17
2022-12-11T19:14:11.593Z,1.17
2022-12-11T19:16:45.442Z,1.15
2022-12-11T19:19:18.008Z,1.17
2022-12-11T19:21:49.090Z,1.17
2022-12-11T19:24:22.518Z,1.17
2022-12-11T19:26:51.942Z,1.17
2022-12-11T19:29:25.996Z,1.13
2022-12-11T19:31:55.892Z,1.10
2022-12-11T19:34:26.989Z,1.08
2022-12-11T19:36:56.344Z,1.07
2022-12-11T19:39:25.191Z,1.05
2022-12-11T19:41:54.700Z,1.02
2022-12-11T19:44:25.022Z,0.95
2022-12-11T19:46:53.675Z,0.86
2022-12-11T19:49:23.360Z,0.84
2022-12-11T19:51:53.783Z,0.88
2022-12-11T19:54:24.686Z,0.87
2022-12-11T19:56:54.886Z,0.86
2022-12-11T19:59:23.708Z,0.84
2022-12-11T20:01:52.755Z,0.78
2022-12-11T20:04:22.629Z,0.80
2022-12-11T20:06:53.449Z,0.81
2022-12-11T20:09:24.440Z,0.81
2022-12-11T20:11:53.477Z,0.76
2022-12-11T20:14:27.103Z,0.77
2022-12-11T20:17:15.042Z,0.78
2022-12-11T20:19:44.705Z,0.81
2022-12-11T20:22:15.192Z,0.82
2022-12-11T20:24:45.170Z,0.85
2022-12-11T20:27:14.861Z,0.82
2022-12-11T20:29:44.451Z,0.85
2022-12-11T20:32:14.309Z,0.88
2022-12-11T20:34:43.729Z,0.88
2022-12-11T20:37:13.996Z,0.86
2022-12-11T20:39:43.396Z,0.89
2022-12-11T20:42:13.185Z,0.88
2022-12-11T20:44:47.360Z,0.86
2022-12-11T20:47:19.943Z,0.86
2022-12-11T20:49:49.661Z,0.90
2022-12-11T20:52:20.725Z,0.86
2022-12-11T20:54:49.832Z,0.85
2022-12-11T20:57:19.969Z,0.84
2022-12-11T20:59:49.620Z,0.86
2022-12-11T21:02:18.741Z,0.86
2022-12-11T21:04:48.249Z,0.87
2022-12-11T21:07:19.776Z,0.87
2022-12-11T21:09:49.784Z,0.87
2022-12-11T21:12:19.238Z,0.87
2022-12-11T21:14:48.768Z,0.90
2022-12-11T21:17:18.208Z,0.90
2022-12-11T21:19:48.370Z,0.93
2022-12-11T21:22:19.412Z,0.92
2022-12-11T21:24:47.970Z,0.84
2022-12-11T21:27:16.432Z,0.84
2022-12-11T21:29:45.430Z,0.82
2022-12-11T21:32:14.953Z,0.82
2022-12-11T21:34:43.989Z,0.82
2022-12-11T21:37:12.905Z,0.80
2022-12-11T21:39:43.265Z,0.78
2022-12-11T21:42:12.793Z,0.82
2022-12-11T21:45:58.882Z,0.84
2022-12-11T21:47:31.861Z,0.87
2022-12-11T21:50:01.457Z,0.90
2022-12-11T21:52:32.117Z,0.91
2022-12-11T21:55:03.533Z,0.92
2022-12-11T21:57:32.612Z,0.91
2022-12-11T22:00:02.041Z,0.90
2022-12-11T22:02:33.128Z,0.88
2022-12-11T22:05:04.002Z,0.85
2022-12-11T22:07:33.503Z,0.87
2022-12-11T22:10:04.695Z,0.87
2022-12-11T22:12:33.758Z,0.87
2022-12-11T22:15:02.872Z,0.89
2022-12-11T22:17:33.114Z,0.89
2022-12-11T22:20:02.110Z,0.88
2022-12-11T22:22:30.986Z,0.86
2022-12-11T22:25:00.444Z,0.83
2022-12-11T22:27:31.383Z,0.79
2022-12-11T22:30:00.395Z,0.78
2022-12-11T22:32:29.310Z,0.82
2022-12-11T22:34:59.224Z,0.80
2022-12-11T22:37:29.089Z,0.83
2022-12-11T22:39:59.447Z,0.87
2022-12-11T22:42:30.268Z,0.85
2022-12-11T22:44:59.984Z,0.84
2022-12-11T22:47:28.956Z,0.87
2022-12-11T22:49:58.360Z,0.90
2022-12-11T22:52:27.842Z,0.92
2022-12-11T22:54:57.632Z,0.93
2022-12-11T22:57:26.072Z,0.92
2022-12-11T22:59:58.058Z,0.91
2022-12-11T23:02:28.206Z,0.90
2022-12-11T23:04:57.606Z,0.92
2022-12-11T23:07:28.388Z,0.94
2022-12-11T23:09:57.533Z,0.94
2022-12-11T23:12:26.967Z,0.96
2022-12-11T23:14:57.340Z,0.93
2022-12-11T23:17:26.836Z,0.94
2022-12-11T23:19:56.842Z,0.94
2022-12-11T23:22:27.367Z,0.94
2022-12-11T23:24:57.377Z,0.91
2022-12-11T23:27:26.830Z,0.89
2022-12-11T23:29:57.098Z,0.86
2022-12-11T23:32:27.138Z,0.87
2022-12-11T23:34:56.277Z,0.90
2022-12-11T23:37:25.689Z,0.90
2022-12-11T23:39:54.513Z,0.92
2022-12-11T23:42:24.623Z,0.92
2022-12-11T23:44:53.063Z,0.90
2022-12-11T23:47:25.006Z,0.90
2022-12-11T23:49:55.034Z,0.87
2022-12-11T23:52:26.647Z,0.87
2022-12-11T23:54:55.675Z,0.86
2022-12-11T23:57:24.137Z,0.88
2022-12-11T23:59:54.865Z,0.90
